createdAt,value
2018-06-05T00:01:59.867Z,76.87
2018-06-05T00:04:28.581Z,76.78
2018-06-05T00:06:57.204Z,76.93
2018-06-05T00:09:25.875Z,77.04
2018-06-05T00:11:54.554Z,77.09
2018-06-05T00:14:23.182Z,76.74
2018-06-05T00:16:51.877Z,76.64
2018-06-05T00:19:20.515Z,76.34
2018-06-05T00:21:49.177Z,76.81
2018-06-05T00:24:17.838Z,76.56
2018-06-05T00:26:46.459Z,76.59
2018-06-05T00:29:15.082Z,77.30
2018-06-05T00:31:43.776Z,76.94
2018-06-05T00:34:12.519Z,76.96
2018-06-05T00:36:41.217Z,76.99
2018-06-05T00:39:09.838Z,76.75
2018-06-05T00:41:38.476Z,76.84
2018-06-05T00:44:07.146Z,77.36
2018-06-05T00:46:35.791Z,77.15
2018-06-05T00:49:04.438Z,77.06
2018-06-05T00:51:44.184Z,76.74
2018-06-05T00:54:12.956Z,77.18
2018-06-05T00:56:41.635Z,77.27
2018-06-05T00:59:10.242Z,77.48
2018-06-05T01:01:38.895Z,77.60
2018-06-05T01:04:07.621Z,77.59
2018-06-05T01:06:36.236Z,78.12
2018-06-05T01:09:07.324Z,77.61
2018-06-05T01:11:36.080Z,77.84
2018-06-05T01:14:04.864Z,77.60
2018-06-05T01:16:33.474Z,77.76
2018-06-05T01:19:02.129Z,77.85
2018-06-05T01:21:30.737Z,78.26
2018-06-05T01:23:59.402Z,78.28
2018-06-05T01:26:28.078Z,78.22
2018-06-05T01:28:56.766Z,78.92
2018-06-05T01:31:25.469Z,78.51
2018-06-05T01:33:54.217Z,78.47
2018-06-05T01:36:22.884Z,78.21
2018-06-05T01:38:51.546Z,77.92
2018-06-05T01:41:20.166Z,78.42
2018-06-05T01:43:48.862Z,78.05
2018-06-05T01:46:17.540Z,77.70
2018-06-05T01:48:46.204Z,77.74
2018-06-05T01:51:14.854Z,77.16
2018-06-05T01:53:43.534Z,77.35
2018-06-05T01:56:13.303Z,76.86
2018-06-05T01:58:41.924Z,76.97
2018-06-05T02:01:10.581Z,76.52
2018-06-05T02:03:39.237Z,76.43
2018-06-05T02:06:07.992Z,76.06
2018-06-05T02:08:36.703Z,75.00
2018-06-05T02:11:05.358Z,74.04
2018-06-05T02:16:07.967Z,73.60
2018-06-05T02:18:36.608Z,73.96
2018-06-05T02:21:05.252Z,73.82
2018-06-05T02:23:33.895Z,73.93
2018-06-05T02:26:02.522Z,73.94
2018-06-05T02:28:31.151Z,74.64
2018-06-05T02:30:59.804Z,74.28
2018-06-05T02:33:28.423Z,74.08
2018-06-05T02:35:57.064Z,74.48
2018-06-05T02:38:25.696Z,73.89
2018-06-05T02:40:54.442Z,72.91
2018-06-05T02:43:23.152Z,74.57
2018-06-05T02:45:51.864Z,75.38
2018-06-05T02:48:20.467Z,75.46
2018-06-05T02:50:49.143Z,74.58
2018-06-05T02:53:17.791Z,74.37
2018-06-05T02:55:46.427Z,73.69
2018-06-05T02:58:15.068Z,73.97
2018-06-05T03:00:43.700Z,74.11
2018-06-05T03:03:12.425Z,74.31
2018-06-05T03:05:41.156Z,74.19
2018-06-05T03:08:09.846Z,74.18
2018-06-05T03:10:38.495Z,75.35
2018-06-05T03:13:07.199Z,73.60
2018-06-05T03:15:35.837Z,74.85
2018-06-05T03:18:04.563Z,73.16
2018-06-05T03:20:33.256Z,72.05
2018-06-05T03:23:01.949Z,73.80
2018-06-05T03:25:30.592Z,73.29
2018-06-05T03:27:59.259Z,72.72
2018-06-05T03:30:27.893Z,74.11
2018-06-05T03:32:56.583Z,72.80
2018-06-05T03:35:25.270Z,71.74
2018-06-05T03:37:53.951Z,72.02
2018-06-05T03:40:22.586Z,71.61
2018-06-05T03:42:51.298Z,71.39
2018-06-05T03:45:19.950Z,70.65
2018-06-05T03:47:48.607Z,71.78
2018-06-05T03:50:17.257Z,72.93
2018-06-05T03:52:45.924Z,73.01
2018-06-05T03:55:14.547Z,73.88
2018-06-05T03:57:43.213Z,73.42
2018-06-05T04:00:11.927Z,73.27
2018-06-05T04:02:40.553Z,72.67
2018-06-05T04:05:09.219Z,73.28
2018-06-05T04:07:37.848Z,73.51
2018-06-05T04:10:06.635Z,73.42
2018-06-05T04:12:35.321Z,73.56
2018-06-05T04:15:04.078Z,74.31
2018-06-05T04:17:33.090Z,74.72
2018-06-05T04:20:01.816Z,74.85
2018-06-05T04:22:30.462Z,74.68
2018-06-05T04:24:59.137Z,74.82
2018-06-05T04:27:27.855Z,75.35
2018-06-05T04:29:56.486Z,75.73
2018-06-05T04:32:25.162Z,75.27
2018-06-05T04:34:53.825Z,75.14
2018-06-05T04:37:22.457Z,74.74
2018-06-05T04:39:51.146Z,74.16
2018-06-05T04:42:19.846Z,74.81
2018-06-05T04:44:48.510Z,74.38
2018-06-05T04:47:17.803Z,73.89
2018-06-05T04:49:46.578Z,73.63
2018-06-05T04:52:15.197Z,73.13
2018-06-05T04:54:43.840Z,71.27
2018-06-05T04:57:12.571Z,70.84
2018-06-05T04:59:41.181Z,69.77
2018-06-05T05:02:09.850Z,68.18
2018-06-05T05:04:38.513Z,68.56
2018-06-05T05:07:07.178Z,69.74
2018-06-05T05:09:35.834Z,69.01
2018-06-05T05:12:04.491Z,69.33
2018-06-05T05:14:33.158Z,69.46
2018-06-05T05:17:01.882Z,67.84
2018-06-05T05:19:30.551Z,68.60
2018-06-05T05:21:59.193Z,69.09
2018-06-05T05:24:27.815Z,69.29
2018-06-05T05:26:56.473Z,69.24
2018-06-05T05:29:25.098Z,69.21
2018-06-05T05:31:53.828Z,68.58
2018-06-05T05:34:22.496Z,69.02
2018-06-05T05:36:51.101Z,69.97
2018-06-05T05:39:19.747Z,68.57
2018-06-05T05:41:48.406Z,68.49
2018-06-05T05:44:17.067Z,68.39
2018-06-05T05:46:45.742Z,68.29
2018-06-05T05:49:14.397Z,67.78
2018-06-05T05:51:43.055Z,68.12
2018-06-05T05:54:11.686Z,68.31
2018-06-05T05:56:40.345Z,67.81
2018-06-05T05:59:09.016Z,68.19
2018-06-05T06:01:37.712Z,66.52
2018-06-05T06:04:06.383Z,65.64
2018-06-05T06:06:35.082Z,65.50
2018-06-05T06:09:04.057Z,65.52
2018-06-05T06:11:32.693Z,65.43
2018-06-05T06:14:01.414Z,65.00
2018-06-05T06:16:30.125Z,65.39
2018-06-05T06:18:58.867Z,65.58
2018-06-05T06:21:27.542Z,65.04
2018-06-05T06:23:56.210Z,65.09
2018-06-05T06:26:24.895Z,62.76
2018-06-05T06:28:53.518Z,62.93
2018-06-05T06:31:22.159Z,63.49
2018-06-05T06:33:50.848Z,63.37
2018-06-05T06:36:19.503Z,63.31
2018-06-05T06:38:48.151Z,63.73
2018-06-05T06:41:16.977Z,64.09
2018-06-05T06:43:45.642Z,63.88
2018-06-05T06:46:14.280Z,62.42
2018-06-05T06:48:42.984Z,63.33
2018-06-05T06:51:11.735Z,62.08
2018-06-05T06:53:40.403Z,61.02
2018-06-05T06:56:09.068Z,60.88
2018-06-05T06:58:37.722Z,60.88
2018-06-05T07:01:06.371Z,60.68
2018-06-05T07:03:35.132Z,60.61
2018-06-05T07:06:03.766Z,59.38
2018-06-05T07:08:32.399Z,60.34
2018-06-05T07:11:01.088Z,59.50
2018-06-05T07:13:29.750Z,59.14
2018-06-05T07:15:58.440Z,59.32
2018-06-05T07:18:27.479Z,59.31
2018-06-05T07:20:56.162Z,59.10
2018-06-05T07:23:24.902Z,59.04
2018-06-05T07:25:53.590Z,58.39
2018-06-05T07:28:22.286Z,57.18
2018-06-05T07:30:51.110Z,57.40
2018-06-05T07:33:19.748Z,58.26
2018-06-05T07:35:48.452Z,57.44
2018-06-05T07:38:17.057Z,56.86
2018-06-05T07:40:45.736Z,56.31
2018-06-05T07:43:14.671Z,55.88
2018-06-05T07:45:43.362Z,55.24
2018-06-05T07:48:12.077Z,54.66
2018-06-05T07:50:40.729Z,53.86
2018-06-05T07:53:09.362Z,53.55
2018-06-05T07:55:38.041Z,53.05
2018-06-05T07:58:06.746Z,52.04
2018-06-05T08:00:35.391Z,52.19
2018-06-05T08:03:04.039Z,52.64
2018-06-05T08:05:32.690Z,51.13
2018-06-05T08:08:01.347Z,51.71
2018-06-05T08:10:30.036Z,51.68
2018-06-05T08:12:58.675Z,50.82
2018-06-05T08:15:27.399Z,51.53
2018-06-05T08:17:56.053Z,52.26
2018-06-05T08:20:24.840Z,51.18
2018-06-05T08:22:55.587Z,51.34
2018-06-05T08:25:24.308Z,51.68
2018-06-05T08:27:52.956Z,50.21
2018-06-05T08:30:21.639Z,48.92
2018-06-05T08:32:50.261Z,48.75
2018-06-05T08:35:18.929Z,48.05
2018-06-05T08:37:47.548Z,49.68
2018-06-05T08:40:16.301Z,49.81
2018-06-05T08:42:44.989Z,46.71
2018-06-05T08:45:13.680Z,47.01
2018-06-05T08:47:42.273Z,47.99
2018-06-05T08:50:10.931Z,46.86
2018-06-05T08:52:39.583Z,45.62
2018-06-05T08:55:08.242Z,45.88
2018-06-05T08:57:36.886Z,45.82
2018-06-05T09:00:07.359Z,46.03
2018-06-05T09:02:36.053Z,44.08
2018-06-05T09:05:04.894Z,43.23
2018-06-05T09:07:33.525Z,43.92
2018-06-05T09:10:02.178Z,45.67
2018-06-05T09:12:30.806Z,45.26
2018-06-05T09:14:59.438Z,44.55
2018-06-05T09:17:28.046Z,44.91
2018-06-05T09:19:56.673Z,43.73
2018-06-05T09:22:25.354Z,42.85
2018-06-05T09:24:53.991Z,43.24
2018-06-05T09:27:22.621Z,42.65
2018-06-05T09:29:51.317Z,43.49
2018-06-05T09:32:20.262Z,42.70
2018-06-05T09:34:48.887Z,42.63
2018-06-05T09:37:17.510Z,43.17
2018-06-05T09:39:46.147Z,42.89
2018-06-05T09:42:14.808Z,42.53
2018-06-05T09:44:43.450Z,42.52
2018-06-05T09:47:12.118Z,41.23
2018-06-05T09:49:40.755Z,41.83
2018-06-05T09:52:09.398Z,41.79
2018-06-05T09:54:38.162Z,41.40
2018-06-05T09:57:06.809Z,41.13
2018-06-05T09:59:35.492Z,40.13
2018-06-05T10:02:04.155Z,40.50
2018-06-05T10:04:32.826Z,39.50
2018-06-05T10:07:01.509Z,38.89
2018-06-05T10:09:30.161Z,39.83
2018-06-05T10:11:58.847Z,39.56
2018-06-05T10:14:27.466Z,39.65
2018-06-05T10:16:56.139Z,40.24
2018-06-05T10:19:24.866Z,40.74
2018-06-05T10:21:53.556Z,39.88
2018-06-05T10:24:22.195Z,37.70
2018-06-05T10:26:50.866Z,38.73
2018-06-05T10:29:19.547Z,37.85
2018-06-05T10:31:48.215Z,37.66
2018-06-05T10:34:16.881Z,38.13
2018-06-05T10:36:45.498Z,37.02
2018-06-05T10:39:14.289Z,38.52
2018-06-05T10:41:43.079Z,38.46
2018-06-05T10:44:11.693Z,36.25
2018-06-05T10:46:40.482Z,35.70
2018-06-05T10:49:09.134Z,35.42
2018-06-05T10:51:37.776Z,35.69
2018-06-05T10:54:06.455Z,35.55
2018-06-05T10:56:35.134Z,35.00
2018-06-05T10:59:03.764Z,34.92
2018-06-05T11:01:32.414Z,34.72
2018-06-05T11:04:01.523Z,32.58
2018-06-05T11:06:30.295Z,31.59
2018-06-05T11:08:58.919Z,33.06
2018-06-05T11:11:27.558Z,32.08
2018-06-05T11:13:56.247Z,31.93
2018-06-05T11:16:24.969Z,31.41
2018-06-05T11:18:53.714Z,30.65
2018-06-05T11:21:22.356Z,30.15
2018-06-05T11:23:50.988Z,30.41
2018-06-05T11:26:19.635Z,31.78
2018-06-05T11:28:48.316Z,32.07
2018-06-05T11:31:16.975Z,30.92
2018-06-05T11:33:45.661Z,30.75
2018-06-05T11:36:14.316Z,31.28
2018-06-05T11:38:42.970Z,31.69
2018-06-05T11:41:11.616Z,31.73
2018-06-05T11:43:40.276Z,29.10
2018-06-05T11:46:08.970Z,28.80
2018-06-05T11:48:37.626Z,29.19
2018-06-05T11:51:06.250Z,25.89
2018-06-05T11:53:34.873Z,27.00
2018-06-05T11:56:03.590Z,27.57
2018-06-05T11:58:32.315Z,29.02
2018-06-05T12:01:00.990Z,29.07
2018-06-05T12:03:29.615Z,30.08
2018-06-05T12:05:58.366Z,29.74
2018-06-05T12:08:26.988Z,30.20
2018-06-05T12:10:55.652Z,29.77
2018-06-05T12:13:24.268Z,28.74
2018-06-05T12:15:52.867Z,29.38
2018-06-05T12:18:21.456Z,29.75
2018-06-05T12:20:50.084Z,29.41
2018-06-05T12:23:18.757Z,29.08
2018-06-05T12:25:47.419Z,29.23
2018-06-05T12:28:16.073Z,29.12
2018-06-05T12:30:44.738Z,30.59
2018-06-05T12:33:13.381Z,30.84
2018-06-05T12:35:42.033Z,32.07
2018-06-05T12:38:10.687Z,31.64
2018-06-05T12:40:39.302Z,32.09
2018-06-05T12:43:07.922Z,31.30
2018-06-05T12:45:36.530Z,30.03
2018-06-05T12:48:06.324Z,30.15
2018-06-05T12:50:34.989Z,29.97
2018-06-05T12:53:03.626Z,31.13
2018-06-05T12:55:32.244Z,30.87
2018-06-05T12:58:00.939Z,32.63
2018-06-05T13:00:29.596Z,33.25
2018-06-05T13:02:58.298Z,32.45
2018-06-05T13:05:27.140Z,34.47
2018-06-05T13:07:55.844Z,35.54
2018-06-05T13:10:24.463Z,36.77
2018-06-05T13:12:53.148Z,35.99
2018-06-05T13:15:21.841Z,35.44
2018-06-05T13:17:51.170Z,35.53
2018-06-05T13:20:19.881Z,35.14
2018-06-05T13:22:48.556Z,36.56
2018-06-05T13:25:17.167Z,35.76
2018-06-05T13:27:45.844Z,36.48
2018-06-05T13:30:14.553Z,34.69
2018-06-05T13:32:43.174Z,33.52
2018-06-05T13:35:11.809Z,32.95
2018-06-05T13:37:41.640Z,33.25
2018-06-05T13:40:10.266Z,33.15
2018-06-05T13:42:38.880Z,34.22
2018-06-05T13:45:07.503Z,33.74
2018-06-05T13:47:36.168Z,33.59
2018-06-05T13:50:04.938Z,33.52
2018-06-05T13:52:33.610Z,34.14
2018-06-05T13:55:02.254Z,34.04
2018-06-05T13:57:30.894Z,32.37
2018-06-05T13:59:59.546Z,32.92
2018-06-05T14:02:28.161Z,32.15
2018-06-05T14:04:56.866Z,32.80
2018-06-05T14:07:25.511Z,33.07
2018-06-05T14:09:54.179Z,32.08
2018-06-05T14:12:22.864Z,32.33
2018-06-05T14:14:51.542Z,31.56
2018-06-05T14:17:20.317Z,30.41
2018-06-05T14:19:48.968Z,31.35
2018-06-05T14:22:17.598Z,30.69
2018-06-05T14:24:46.607Z,29.44
2018-06-05T14:27:15.262Z,30.16
2018-06-05T14:29:43.887Z,29.10
2018-06-05T14:32:12.473Z,29.62
2018-06-05T14:34:41.256Z,29.47
2018-06-05T14:37:09.957Z,28.80
2018-06-05T14:39:38.598Z,29.59
2018-06-05T14:42:07.321Z,29.13
2018-06-05T14:44:35.992Z,28.26
2018-06-05T14:47:04.667Z,30.25
2018-06-05T14:49:33.335Z,31.86
2018-06-05T14:52:27.266Z,32.92
2018-06-05T14:54:59.852Z,32.07
2018-06-05T14:57:29.090Z,32.97
2018-06-05T14:59:57.981Z,31.30
2018-06-05T15:02:26.713Z,31.60
2018-06-05T15:04:55.360Z,31.49
2018-06-05T15:07:24.034Z,31.00
2018-06-05T15:09:52.780Z,32.13
2018-06-05T15:12:21.415Z,33.18
2018-06-05T15:14:50.101Z,32.99
2018-06-05T15:17:18.752Z,34.74
2018-06-05T15:19:47.449Z,35.38
2018-06-05T15:22:16.238Z,35.09
2018-06-05T15:24:44.822Z,33.71
2018-06-05T15:27:13.570Z,32.75
2018-06-05T15:29:42.258Z,32.92
2018-06-05T15:32:10.938Z,32.29
2018-06-05T15:34:39.651Z,32.27
2018-06-05T15:37:08.319Z,32.33
2018-06-05T15:39:37.034Z,32.53
2018-06-05T15:42:05.711Z,32.64
2018-06-05T15:44:34.370Z,32.11
2018-06-05T15:47:03.038Z,32.01
2018-06-05T15:49:31.720Z,32.05
2018-06-05T15:52:00.393Z,31.17
2018-06-05T15:54:29.062Z,30.94
2018-06-05T15:56:57.689Z,31.45
2018-06-05T15:59:26.328Z,31.73
2018-06-05T16:01:54.986Z,31.83
2018-06-05T16:04:23.672Z,31.64
2018-06-05T16:06:52.369Z,32.64
2018-06-05T16:09:21.031Z,32.97
2018-06-05T16:11:49.688Z,33.54
2018-06-05T16:14:18.300Z,33.51
2018-06-05T16:16:47.007Z,34.44
2018-06-05T16:19:16.261Z,34.68
2018-06-05T16:21:44.886Z,36.33
2018-06-05T16:24:13.584Z,35.93
2018-06-05T16:26:42.438Z,36.94
2018-06-05T16:29:11.085Z,36.40
2018-06-05T16:31:39.817Z,35.10
2018-06-05T16:34:08.495Z,35.26
2018-06-05T16:36:37.206Z,35.04
2018-06-05T16:39:08.432Z,35.58
2018-06-05T16:41:37.135Z,35.76
2018-06-05T16:44:05.817Z,35.82
2018-06-05T16:46:34.448Z,35.29
2018-06-05T16:49:03.113Z,34.28
2018-06-05T16:52:23.480Z,34.31
2018-06-05T16:54:52.547Z,34.49
2018-06-05T16:57:22.982Z,34.31
2018-06-05T16:59:54.351Z,35.40
2018-06-05T17:02:23.076Z,35.32
2018-06-05T17:04:51.860Z,36.71
2018-06-05T17:07:21.499Z,36.06
2018-06-05T17:09:50.114Z,35.87
2018-06-05T17:12:19.622Z,37.02
2018-06-05T17:14:48.221Z,36.59
2018-06-05T17:17:16.955Z,37.37
2018-06-05T17:19:45.571Z,36.93
2018-06-05T17:22:14.365Z,37.42
2018-06-05T17:24:43.014Z,37.95
2018-06-05T17:27:11.690Z,38.82
2018-06-05T17:29:40.313Z,38.72
2018-06-05T17:32:08.983Z,38.77
2018-06-05T17:34:37.724Z,38.70
2018-06-05T17:37:06.398Z,39.47
2018-06-05T17:39:35.068Z,39.82
2018-06-05T17:42:03.702Z,39.60
2018-06-05T17:44:32.363Z,40.46
2018-06-05T17:47:01.038Z,39.76
2018-06-05T17:49:29.683Z,41.20
2018-06-05T17:51:58.337Z,41.11
2018-06-05T17:54:26.957Z,40.92
2018-06-05T17:56:55.579Z,41.39
2018-06-05T17:59:24.931Z,41.75
2018-06-05T18:01:53.573Z,41.40
2018-06-05T18:04:22.243Z,42.54
2018-06-05T18:06:50.898Z,42.62
2018-06-05T18:09:19.560Z,42.76
2018-06-05T18:11:48.348Z,42.71
2018-06-05T18:14:17.037Z,42.36
2018-06-05T18:16:45.731Z,42.41
2018-06-05T18:19:14.383Z,42.30
2018-06-05T18:21:43.109Z,42.87
2018-06-05T18:24:11.897Z,43.71
2018-06-05T18:26:40.578Z,44.28
2018-06-05T18:29:09.162Z,44.77
2018-06-05T18:31:38.051Z,45.32
2018-06-05T18:34:06.673Z,46.08
2018-06-05T18:36:35.432Z,45.67
2018-06-05T18:39:05.741Z,46.83
2018-06-05T18:41:34.482Z,47.11
2018-06-05T18:44:03.101Z,46.97
2018-06-05T18:46:31.860Z,47.38
2018-06-05T18:49:00.852Z,48.27
2018-06-05T18:51:29.493Z,47.29
2018-06-05T18:53:58.155Z,48.39
2018-06-05T18:56:26.834Z,49.75
2018-06-05T18:58:55.725Z,49.70
2018-06-05T19:01:24.496Z,49.16
2018-06-05T19:03:53.180Z,48.72
2018-06-05T19:06:21.892Z,48.88
2018-06-05T19:08:50.702Z,49.34
2018-06-05T19:11:19.398Z,50.12
2018-06-05T19:13:48.234Z,50.88
2018-06-05T19:16:16.985Z,50.57
2018-06-05T19:18:45.603Z,51.62
2018-06-05T19:21:15.185Z,52.00
2018-06-05T19:23:43.832Z,51.93
2018-06-05T19:26:12.490Z,52.49
2018-06-05T19:28:41.762Z,53.16
2018-06-05T19:31:10.815Z,52.24
2018-06-05T19:33:39.506Z,52.00
2018-06-05T19:36:08.224Z,53.43
2018-06-05T19:38:36.901Z,53.39
2018-06-05T19:41:05.545Z,52.40
2018-06-05T19:43:34.228Z,52.91
2018-06-05T19:46:02.883Z,53.58
2018-06-05T19:48:31.561Z,53.81
2018-06-05T19:51:00.227Z,53.65
2018-06-05T19:53:28.910Z,54.18
2018-06-05T19:55:58.267Z,54.45
2018-06-05T19:58:27.103Z,54.07
2018-06-05T20:00:55.822Z,54.49
2018-06-05T20:03:24.481Z,55.14
2018-06-05T20:05:53.446Z,55.10
2018-06-05T20:08:22.155Z,55.21
2018-06-05T20:10:51.003Z,55.13
2018-06-05T20:14:16.539Z,55.41
2018-06-05T20:17:05.118Z,55.79
2018-06-05T20:19:47.224Z,56.06
2018-06-05T20:28:18.976Z,56.26
2018-06-05T20:30:55.562Z,57.06
2018-06-05T20:37:10.235Z,56.32
2018-06-05T20:39:39.867Z,55.91
2018-06-05T20:42:08.525Z,56.26
2018-06-05T20:44:37.199Z,55.95
2018-06-05T20:47:05.944Z,56.31
2018-06-05T20:49:34.707Z,55.77
2018-06-05T20:52:03.440Z,55.50
2018-06-05T20:54:32.103Z,55.97
2018-06-05T20:57:00.759Z,56.36
2018-06-05T20:59:29.462Z,55.97
2018-06-05T21:01:58.132Z,55.93
2018-06-05T21:04:26.864Z,56.05
2018-06-05T21:06:55.619Z,55.85
2018-06-05T21:09:24.299Z,56.27
2018-06-05T21:11:52.950Z,55.86
2018-06-05T21:14:21.613Z,56.25
2018-06-05T21:16:50.302Z,55.58
2018-06-05T21:19:19.045Z,56.20
2018-06-05T21:21:47.685Z,56.14
2018-06-05T21:24:16.369Z,56.10
2018-06-05T21:26:45.173Z,56.71
2018-06-05T21:29:13.878Z,56.82
2018-06-05T21:31:42.687Z,56.46
2018-06-05T21:34:11.457Z,57.15
2018-06-05T21:36:40.114Z,57.14
2018-06-05T21:39:10.111Z,57.91
2018-06-05T21:41:39.390Z,57.41
2018-06-05T21:44:08.169Z,58.17
2018-06-05T21:46:36.827Z,57.76
2018-06-05T21:49:05.519Z,57.51
2018-06-05T21:51:34.318Z,57.85
2018-06-05T21:54:05.229Z,57.82
2018-06-05T21:56:34.576Z,58.34
2018-06-05T21:59:03.749Z,58.18
2018-06-05T22:01:34.191Z,58.39
2018-06-05T22:06:48.598Z,59.09
2018-06-05T22:09:17.288Z,58.70
2018-06-05T22:11:46.910Z,58.80
2018-06-05T22:14:17.379Z,58.94
2018-06-05T22:16:46.145Z,58.83
2018-06-05T22:19:17.907Z,59.29
2018-06-05T22:21:47.355Z,59.39
2018-06-05T22:24:16.311Z,59.85
2018-06-05T22:39:55.890Z,60.15
2018-06-05T22:42:24.638Z,60.64
2018-06-05T22:44:53.291Z,60.98
2018-06-05T22:47:21.903Z,61.62
2018-06-05T22:49:50.706Z,61.70
2018-06-05T22:52:19.377Z,61.86
2018-06-05T22:54:48.144Z,62.57
2018-06-05T22:57:17.704Z,62.12
2018-06-05T22:59:46.385Z,62.37
2018-06-05T23:02:15.237Z,62.34
2018-06-05T23:04:43.935Z,62.23
2018-06-05T23:07:12.682Z,62.62
2018-06-05T23:09:41.315Z,62.33
2018-06-05T23:12:10.038Z,62.32
2018-06-05T23:14:38.694Z,62.28
2018-06-05T23:17:07.379Z,62.53
2018-06-05T23:19:36.079Z,62.62
2018-06-05T23:22:04.749Z,62.65
2018-06-05T23:24:33.429Z,61.70
2018-06-05T23:27:02.070Z,63.02
2018-06-05T23:29:30.739Z,61.69
2018-06-05T23:31:59.375Z,62.72
2018-06-05T23:34:28.023Z,62.43
2018-06-05T23:36:56.660Z,62.62
2018-06-05T23:39:25.307Z,63.92
2018-06-05T23:41:53.976Z,63.13
2018-06-05T23:44:22.649Z,63.44
2018-06-05T23:46:51.303Z,62.71
2018-06-05T23:49:20.032Z,62.81
2018-06-05T23:51:48.764Z,62.18
2018-06-05T23:54:17.500Z,61.92
2018-06-05T23:56:46.176Z,61.76
2018-06-05T23:59:14.820Z,61.79
